Time;durP1;ratioP1;P1;durP2;ratioP2;P2;SDS_P1;SDS_P2;PMS_P1;PMS_P2;Temp;Humidity;BMP_temperature;BMP_pressure;BME280_temperature;BME280_humidity;BME280_pressure;Samples;Min_cycle;Max_cycle;Signal;HPM_P1;HPM_P2
2023/07/01 00:01:33;;;;;;;9.52;8.52;;;26.50;48.20;;;;;;4976490;28;20031;-68
2023/07/01 00:03:59;;;;;;;9.32;7.85;;;26.50;48.30;;;;;;4979781;28;20027;-68
2023/07/01 00:06:26;;;;;;;8.70;7.78;;;26.50;48.20;;;;;;4978828;28;20031;-68
2023/07/01 00:08:53;;;;;;;8.85;7.95;;;26.50;48.30;;;;;;4979289;28;20037;-68
2023/07/01 00:11:19;;;;;;;8.65;7.45;;;26.50;48.30;;;;;;4977243;28;20014;-68
2023/07/01 00:13:45;;;;;;;8.35;7.50;;;26.50;48.80;;;;;;4981057;28;20030;-68
2023/07/01 00:16:13;;;;;;;8.80;7.90;;;26.50;48.20;;;;;;4964079;28;20452;-68
2023/07/01 00:18:40;;;;;;;8.95;8.05;;;26.50;48.20;;;;;;4978505;28;20033;-68
2023/07/01 00:21:06;;;;;;;8.75;7.80;;;26.50;48.30;;;;;;4962886;28;20458;-68
2023/07/01 00:23:32;;;;;;;8.95;7.70;;;26.50;48.20;;;;;;4978230;28;20117;-68
2023/07/01 00:25:58;;;;;;;8.95;7.78;;;26.50;48.30;;;;;;4976073;28;20030;-68
2023/07/01 00:28:24;;;;;;;8.20;7.40;;;26.50;48.20;;;;;;4962077;28;20447;-68
2023/07/01 00:30:49;;;;;;;8.23;7.28;;;26.50;48.30;;;;;;4982490;28;20036;-68
2023/07/01 00:33:15;;;;;;;8.32;7.43;;;26.50;48.20;;;;;;4980783;28;20026;-68
2023/07/01 00:35:40;;;;;;;8.95;7.78;;;26.40;48.20;;;;;;4977684;28;20034;-68
2023/07/01 00:38:06;;;;;;;8.10;7.18;;;26.40;48.20;;;;;;4980238;28;20371;-68
2023/07/01 00:40:32;;;;;;;8.68;7.10;;;26.40;48.20;;;;;;4979118;28;20077;-68
2023/07/01 00:42:57;;;;;;;7.95;7.15;;;26.40;48.20;;;;;;4968551;28;20023;-68
2023/07/01 00:45:23;;;;;;;8.20;7.40;;;26.40;48.20;;;;;;4962865;28;20030;-68
2023/07/01 00:47:49;;;;;;;8.70;7.53;;;26.40;48.20;;;;;;4982309;28;20019;-67
2023/07/01 00:50:15;;;;;;;8.35;7.40;;;26.40;48.20;;;;;;4981409;28;20113;-68
2023/07/01 00:52:42;;;;;;;8.45;7.53;;;26.40;48.20;;;;;;4979782;28;20030;-68
2023/07/01 00:55:10;;;;;;;8.50;7.38;;;26.40;48.20;;;;;;4982631;28;20390;-68
2023/07/01 00:57:36;;;;;;;8.35;7.45;;;26.40;48.20;;;;;;4981353;28;20118;-68
2023/07/01 01:00:04;;;;;;;7.82;6.95;;;26.40;48.20;;;;;;4982986;28;20113;-67
2023/07/01 01:02:37;;;;;;;8.18;7.10;;;26.40;48.20;;;;;;4983692;28;20061;-67
2023/07/01 01:05:12;;;;;;;7.65;6.85;;;26.40;48.20;;;;;;4981478;28;20419;-67
2023/07/01 01:08:18;;;;;;;7.95;7.13;;;26.40;48.20;;;;;;4982646;28;20030;-68
2023/07/01 01:10:47;;;;;;;7.95;6.97;;;26.40;48.20;;;;;;4915020;29;20125;-68
2023/07/01 01:13:15;;;;;;;8.00;6.85;;;26.40;48.20;;;;;;4917009;29;20091;-68
2023/07/01 01:15:42;;;;;;;7.68;6.78;;;26.40;48.20;;;;;;4952684;28;20375;-67
2023/07/01 01:18:09;;;;;;;7.75;6.95;;;26.40;48.20;;;;;;4966309;28;20027;-67
2023/07/01 01:20:38;;;;;;;8.18;7.38;;;26.30;48.10;;;;;;4980572;28;20089;-68
2023/07/01 01:23:10;;;;;;;7.90;7.07;;;26.40;48.20;;;;;;4981033;28;20023;-67
2023/07/01 01:25:50;;;;;;;8.05;7.25;;;26.40;48.20;;;;;;4969466;28;20034;-67
2023/07/01 01:28:16;;;;;;;8.63;7.30;;;26.30;48.10;;;;;;4981080;28;20367;-68
2023/07/01 01:30:42;;;;;;;8.05;7.05;;;26.30;48.10;;;;;;4980247;28;20038;-68
2023/07/01 01:33:07;;;;;;;7.80;6.97;;;26.30;48.10;;;;;;4980976;28;20085;-68
2023/07/01 01:35:33;;;;;;;8.63;7.32;;;26.30;48.60;;;;;;4971818;28;20066;-68
2023/07/01 01:38:06;;;;;;;7.82;6.57;;;26.30;48.10;;;;;;4980068;28;20486;-68
2023/07/01 01:40:40;;;;;;;7.65;6.85;;;26.30;48.20;;;;;;4978506;28;20145;-68
2023/07/01 01:43:18;;;;;;;8.38;7.05;;;26.30;48.10;;;;;;4980398;28;20023;-68
2023/07/01 01:45:45;;;;;;;7.38;6.57;;;26.30;48.10;;;;;;4980907;28;20376;-68
2023/07/01 01:48:12;;;;;;;7.45;6.70;;;26.30;48.10;;;;;;4984044;28;20474;-69
2023/07/01 01:50:40;;;;;;;7.82;7.00;;;26.30;48.10;;;;;;4978425;28;20494;-68
2023/07/01 01:53:06;;;;;;;8.10;7.07;;;26.30;48.10;;;;;;4980984;28;20515;-68
2023/07/01 01:55:32;;;;;;;7.88;7.07;;;26.30;48.10;;;;;;4977388;28;20108;-68
2023/07/01 01:57:59;;;;;;;7.75;6.95;;;26.30;48.10;;;;;;4980209;28;20027;-68
2023/07/01 02:00:25;;;;;;;7.75;6.85;;;26.30;48.10;;;;;;4978390;28;20034;-64
2023/07/01 02:02:51;;;;;;;8.13;6.70;;;26.30;48.10;;;;;;4981869;28;20030;-63
2023/07/01 02:05:16;;;;;;;7.68;6.70;;;26.30;48.10;;;;;;4979246;28;20452;-63
2023/07/01 02:07:42;;;;;;;7.63;6.78;;;26.30;48.10;;;;;;4966265;28;20026;-64
2023/07/01 02:10:08;;;;;;;7.50;6.70;;;26.30;48.10;;;;;;4979958;28;20356;-64
2023/07/01 02:12:34;;;;;;;7.38;6.65;;;26.30;48.70;;;;;;4976926;28;20038;-63
2023/07/01 02:14:59;;;;;;;7.50;6.70;;;26.30;48.20;;;;;;4980675;28;20092;-64
2023/07/01 02:17:25;;;;;;;7.40;6.57;;;26.30;48.10;;;;;;4965733;28;20129;-64
2023/07/01 02:19:51;;;;;;;7.63;6.85;;;26.30;48.10;;;;;;4979723;28;20067;-64
2023/07/01 02:22:17;;;;;;;7.00;6.30;;;26.20;48.00;;;;;;4979897;28;20023;-63
2023/07/01 02:24:42;;;;;;;7.35;6.45;;;26.30;48.10;;;;;;4978991;28;20403;-63
2023/07/01 02:27:08;;;;;;;6.90;6.20;;;26.30;48.10;;;;;;4978455;28;20022;-64
2023/07/01 02:29:34;;;;;;;6.88;6.18;;;26.30;48.10;;;;;;4964818;28;20042;-64
2023/07/01 02:32:00;;;;;;;6.93;6.22;;;26.20;48.00;;;;;;4980572;28;20050;-64
2023/07/01 02:34:27;;;;;;;6.78;6.07;;;26.20;48.00;;;;;;4978735;28;20062;-64
2023/07/01 02:36:53;;;;;;;7.53;6.72;;;26.30;48.10;;;;;;4980948;28;20045;-64
2023/07/01 02:39:19;;;;;;;7.50;6.70;;;26.20;48.00;;;;;;4965062;28;20556;-64
2023/07/01 02:41:44;;;;;;;7.63;6.82;;;26.20;48.00;;;;;;4977178;28;20110;-63
2023/07/01 02:44:11;;;;;;;7.53;6.72;;;26.20;48.00;;;;;;4979882;28;20519;-63
2023/07/01 02:46:37;;;;;;;7.72;6.72;;;26.20;48.00;;;;;;4979542;28;20018;-62
2023/07/01 02:49:03;;;;;;;6.70;6.00;;;26.20;48.00;;;;;;4963562;28;20109;-63
2023/07/01 02:51:28;;;;;;;7.35;6.38;;;26.20;48.00;;;;;;4979616;28;20501;-63
2023/07/01 02:53:54;;;;;;;6.72;6.03;;;26.20;48.00;;;;;;4979551;28;20915;-63
2023/07/01 02:56:19;;;;;;;7.35;6.53;;;26.20;48.00;;;;;;4980002;28;20027;-63
2023/07/01 02:58:45;;;;;;;6.95;6.25;;;26.20;48.00;;;;;;4979914;28;20487;-63
2023/07/01 03:01:11;;;;;;;7.20;6.30;;;26.20;48.00;;;;;;4976376;28;20066;-63
2023/07/01 03:03:36;;;;;;;7.32;6.50;;;26.20;48.60;;;;;;4981162;28;20114;-63
2023/07/01 03:06:02;;;;;;;7.07;6.20;;;26.20;48.00;;;;;;4981395;28;20133;-64
2023/07/01 03:08:27;;;;;;;6.82;6.05;;;26.20;48.00;;;;;;4970672;28;20030;-64
2023/07/01 03:10:53;;;;;;;6.88;6.07;;;26.20;48.00;;;;;;4960844;28;20061;-63
2023/07/01 03:13:19;;;;;;;7.20;6.05;;;26.20;48.00;;;;;;4978840;28;20066;-63
2023/07/01 03:15:45;;;;;;;7.03;6.20;;;26.20;48.00;;;;;;4979246;28;20485;-64
2023/07/01 03:18:10;;;;;;;6.90;6.20;;;26.20;48.00;;;;;;4980040;28;20510;-63
2023/07/01 03:20:36;;;;;;;7.38;6.60;;;26.20;48.00;;;;;;4962254;28;20061;-63
2023/07/01 03:23:01;;;;;;;6.90;6.20;;;26.20;48.00;;;;;;4980785;28;20026;-63
2023/07/01 03:25:27;;;;;;;6.93;6.22;;;26.20;48.00;;;;;;4978199;28;20027;-64
2023/07/01 03:27:53;;;;;;;6.57;5.78;;;26.20;48.00;;;;;;4978716;28;20107;-63
2023/07/01 03:30:22;;;;;;;7.28;6.18;;;26.10;47.90;;;;;;4979299;28;20038;-64
2023/07/01 03:32:48;;;;;;;6.38;5.78;;;26.20;48.00;;;;;;4979478;28;20031;-63
2023/07/01 03:35:15;;;;;;;6.63;5.80;;;26.10;47.90;;;;;;4960740;28;20391;-63
2023/07/01 03:37:42;;;;;;;6.15;5.55;;;26.20;48.00;;;;;;4979283;28;20109;-63
2023/07/01 03:40:12;;;;;;;6.80;6.10;;;26.20;48.00;;;;;;4961582;28;20056;-63
2023/07/01 03:42:38;;;;;;;;;;;26.20;48.00;;;;;;4977262;28;20487;-63
2023/07/01 03:45:08;;;;;;;6.13;5.50;;;26.10;47.90;;;;;;4979891;28;19913;-63
2023/07/01 03:47:35;;;;;;;6.65;5.95;;;26.10;47.90;;;;;;4979365;28;20598;-64
2023/07/01 03:50:01;;;;;;;6.40;5.72;;;26.10;47.90;;;;;;4978038;28;20614;-63
2023/07/01 03:52:26;;;;;;;6.65;5.53;;;26.10;47.90;;;;;;4978878;28;20034;-63
2023/07/01 03:54:52;;;;;;;6.68;5.80;;;26.10;47.90;;;;;;4977506;28;20026;-64
2023/07/01 03:57:17;;;;;;;6.18;5.57;;;26.10;47.90;;;;;;4976642;28;20031;-63
2023/07/01 03:59:43;;;;;;;6.50;5.60;;;26.10;47.90;;;;;;4978869;28;20031;-63
2023/07/01 04:02:10;;;;;;;6.82;5.75;;;26.10;47.90;;;;;;4979346;28;20018;-63
2023/07/01 04:04:36;;;;;;;6.53;5.70;;;26.10;47.90;;;;;;4979246;28;20022;-64
2023/07/01 04:07:02;;;;;;;6.20;5.25;;;26.10;47.90;;;;;;4979903;28;20078;-63
2023/07/01 04:09:29;;;;;;;6.53;5.82;;;26.10;47.90;;;;;;4979549;28;20031;-64
2023/07/01 04:11:54;;;;;;;6.72;5.70;;;26.10;47.90;;;;;;4977683;28;20030;-63
2023/07/01 04:14:23;;;;;;;6.00;5.40;;;26.10;47.90;;;;;;4982194;28;20921;-63
2023/07/01 04:16:49;;;;;;;6.13;5.47;;;26.10;47.90;;;;;;4984161;28;20496;-63
2023/07/01 04:19:15;;;;;;;5.97;5.38;;;26.00;47.80;;;;;;4983483;28;20054;-64
2023/07/01 04:21:40;;;;;;;6.35;5.35;;;26.10;47.90;;;;;;4974096;28;20053;-63
2023/07/01 04:24:07;;;;;;;6.15;5.25;;;26.10;47.90;;;;;;4983793;28;20022;-63
2023/07/01 04:26:34;;;;;;;5.88;5.03;;;26.10;47.90;;;;;;4979872;28;20040;-63
2023/07/01 04:28:59;;;;;;;6.05;5.10;;;26.10;47.90;;;;;;4980326;28;20077;-65
2023/07/01 04:31:25;;;;;;;5.70;5.10;;;26.10;47.90;;;;;;4972464;28;20038;-64
2023/07/01 04:33:51;;;;;;;6.05;5.43;;;26.00;47.80;;;;;;4971992;28;20057;-63
2023/07/01 04:36:16;;;;;;;5.93;5.32;;;26.10;47.90;;;;;;4981994;28;20031;-62
2023/07/01 04:38:42;;;;;;;6.22;5.63;;;26.10;48.00;;;;;;4982025;28;20666;-63
2023/07/01 04:41:08;;;;;;;5.90;5.30;;;26.00;47.80;;;;;;4982242;28;20027;-64
2023/07/01 04:43:33;;;;;;;6.03;5.38;;;26.00;47.90;;;;;;4980349;28;20114;-64
2023/07/01 04:46:00;;;;;;;6.30;5.45;;;26.00;47.90;;;;;;4982886;28;20022;-64
2023/07/01 04:48:25;;;;;;;5.88;5.13;;;26.00;47.90;;;;;;4983214;28;20019;-64
2023/07/01 04:50:51;;;;;;;5.57;4.97;;;26.00;47.90;;;;;;4979245;28;20073;-63
2023/07/01 04:53:17;;;;;;;5.63;4.95;;;26.00;47.90;;;;;;4982134;28;20391;-63
2023/07/01 04:55:43;;;;;;;6.07;4.97;;;26.10;47.90;;;;;;4981756;28;20434;-63
2023/07/01 04:58:09;;;;;;;5.30;4.75;;;26.00;47.90;;;;;;4980269;28;20379;-64
2023/07/01 05:00:34;;;;;;;5.40;4.90;;;26.00;47.90;;;;;;4981843;28;20114;-63
2023/07/01 05:03:00;;;;;;;5.20;4.70;;;26.00;48.40;;;;;;4972704;28;20036;-63
2023/07/01 05:05:26;;;;;;;5.05;4.53;;;26.00;47.90;;;;;;4980825;28;20054;-63
2023/07/01 05:07:51;;;;;;;5.32;4.55;;;26.00;47.90;;;;;;4979619;28;20137;-64
2023/07/01 05:10:17;;;;;;;5.07;4.43;;;26.00;47.90;;;;;;4980560;28;20449;-63
2023/07/01 05:12:43;;;;;;;5.50;4.90;;;26.00;47.90;;;;;;4969898;28;20725;-64
2023/07/01 05:15:09;;;;;;;5.70;4.90;;;26.00;47.90;;;;;;4980484;28;20391;-63
2023/07/01 05:17:34;;;;;;;5.28;4.78;;;26.00;47.90;;;;;;4972763;28;20026;-63
2023/07/01 05:20:00;;;;;;;5.72;4.95;;;26.00;47.90;;;;;;4965912;28;20061;-64
2023/07/01 05:22:25;;;;;;;5.60;4.82;;;26.00;47.90;;;;;;4969098;28;20026;-63
2023/07/01 05:24:51;;;;;;;5.35;4.65;;;26.00;48.00;;;;;;4966003;28;20386;-63
2023/07/01 05:27:17;;;;;;;5.45;4.65;;;26.00;48.00;;;;;;4965610;28;20027;-63
2023/07/01 05:29:42;;;;;;;5.32;4.80;;;26.00;48.50;;;;;;4966698;28;20050;-63
2023/07/01 05:32:08;;;;;;;5.22;4.43;;;26.00;48.00;;;;;;4983731;28;20046;-63
2023/07/01 05:34:34;;;;;;;5.53;4.72;;;26.00;48.00;;;;;;4981359;28;20486;-64
2023/07/01 05:37:00;;;;;;;5.15;4.65;;;26.00;48.00;;;;;;4982181;28;20482;-63
2023/07/01 05:39:25;;;;;;;5.10;4.50;;;25.90;47.90;;;;;;4981965;28;20045;-63
2023/07/01 05:41:51;;;;;;;4.90;4.38;;;26.00;48.00;;;;;;4962705;28;20085;-63
2023/07/01 05:44:16;;;;;;;5.63;4.82;;;26.00;48.00;;;;;;4965259;28;20042;-63
2023/07/01 05:46:42;;;;;;;4.88;4.38;;;26.00;48.00;;;;;;4979326;28;20126;-63
2023/07/01 05:49:08;;;;;;;5.38;4.80;;;26.00;48.00;;;;;;4966539;28;20037;-63
2023/07/01 05:51:34;;;;;;;4.97;4.35;;;26.00;48.00;;;;;;4982187;28;20026;-63
2023/07/01 05:54:00;;;;;;;5.18;4.35;;;25.90;47.90;;;;;;4979085;28;20079;-63
2023/07/01 05:56:26;;;;;;;5.13;4.50;;;25.90;47.90;;;;;;4965282;28;20545;-63
2023/07/01 05:58:51;;;;;;;4.85;4.10;;;25.90;47.90;;;;;;4977999;28;20491;-64
2023/07/01 06:01:17;;;;;;;5.32;4.40;;;26.00;48.00;;;;;;4980029;28;20140;-63
2023/07/01 06:03:43;;;;;;;5.03;4.13;;;25.90;47.90;;;;;;4981253;28;20395;-63
2023/07/01 06:06:08;;;;;;;4.80;4.30;;;25.90;47.90;;;;;;4980169;28;20470;-63
2023/07/01 06:08:34;;;;;;;4.47;4.00;;;25.90;47.90;;;;;;4981959;28;20034;-63
2023/07/01 06:10:59;;;;;;;4.93;4.00;;;25.90;47.90;;;;;;4976999;28;20117;-63
2023/07/01 06:13:25;;;;;;;4.93;4.32;;;25.90;47.90;;;;;;4978136;28;20113;-64
2023/07/01 06:15:51;;;;;;;4.90;4.40;;;25.90;47.90;;;;;;4977576;28;20035;-63
2023/07/01 06:18:16;;;;;;;4.68;4.03;;;25.90;48.00;;;;;;4980773;28;20101;-63
2023/07/01 06:20:43;;;;;;;4.45;3.88;;;25.90;48.00;;;;;;4970797;28;20027;-63
2023/07/01 06:23:08;;;;;;;5.00;4.47;;;25.90;48.00;;;;;;4979329;28;20033;-63
2023/07/01 06:25:34;;;;;;;5.03;4.07;;;25.90;47.90;;;;;;4982141;28;20045;-64
2023/07/01 06:28:00;;;;;;;4.60;3.90;;;25.90;47.90;;;;;;4977177;28;20396;-64
2023/07/01 06:30:26;;;;;;;4.50;3.70;;;25.90;48.00;;;;;;4980922;28;20030;-63
2023/07/01 06:32:52;;;;;;;5.03;4.00;;;25.90;48.00;;;;;;4965473;28;20031;-63
2023/07/01 06:35:18;;;;;;;4.35;3.95;;;25.90;48.00;;;;;;4979733;28;20034;-64
2023/07/01 06:37:43;;;;;;;4.45;3.70;;;25.90;48.00;;;;;;4978779;28;20388;-63
2023/07/01 06:40:11;;;;;;;5.15;4.30;;;25.90;48.00;;;;;;4979286;28;20359;-63
2023/07/01 06:42:37;;;;;;;4.80;3.92;;;25.90;48.00;;;;;;4975279;28;20023;-63
2023/07/01 06:45:03;;;;;;;4.30;3.75;;;25.90;48.00;;;;;;4978311;28;20462;-63
2023/07/01 06:47:28;;;;;;;5.35;4.00;;;25.90;48.00;;;;;;4979752;28;20041;-64
2023/07/01 06:49:55;;;;;;;4.57;3.95;;;25.90;48.00;;;;;;4979730;28;20479;-63
2023/07/01 06:52:20;;;;;;;4.63;3.88;;;25.90;48.00;;;;;;4980511;28;20471;-63
2023/07/01 06:54:46;;;;;;;4.65;3.97;;;25.90;48.00;;;;;;4978944;28;20033;-63
2023/07/01 06:57:11;;;;;;;4.68;3.95;;;25.90;48.00;;;;;;4981078;28;20041;-63
2023/07/01 06:59:37;;;;;;;4.50;3.70;;;25.80;48.00;;;;;;4977256;28;20122;-64
2023/07/01 07:02:03;;;;;;;4.35;3.50;;;25.80;47.90;;;;;;4979978;28;20030;-63
2023/07/01 07:04:28;;;;;;;4.72;3.50;;;25.90;48.00;;;;;;4981408;28;20086;-63
2023/07/01 07:06:54;;;;;;;4.57;3.58;;;25.90;48.00;;;;;;4964479;28;20033;-63
2023/07/01 07:09:20;;;;;;;4.43;3.70;;;25.80;47.90;;;;;;4978750;28;20085;-63
2023/07/01 07:11:45;;;;;;;4.65;3.45;;;25.90;48.00;;;;;;4977364;28;20030;-63
2023/07/01 07:14:11;;;;;;;4.20;3.50;;;25.90;48.00;;;;;;4975637;28;20092;-63
2023/07/01 07:16:37;;;;;;;4.13;3.30;;;25.90;48.00;;;;;;4979018;28;20031;-63
2023/07/01 07:19:02;;;;;;;4.18;3.65;;;25.90;48.00;;;;;;4981162;28;20394;-63
2023/07/01 07:21:28;;;;;;;3.80;3.35;;;25.90;48.00;;;;;;4981731;28;20037;-63
2023/07/01 07:23:53;;;;;;;4.40;3.53;;;25.90;48.00;;;;;;4964473;28;20109;-63
2023/07/01 07:26:19;;;;;;;4.43;3.30;;;25.90;48.00;;;;;;4978808;28;20109;-63
2023/07/01 07:28:45;;;;;;;4.05;3.13;;;25.90;47.90;;;;;;4980551;28;20031;-63
2023/07/01 07:31:10;;;;;;;3.95;3.13;;;25.80;47.80;;;;;;4980228;28;20046;-63
2023/07/01 07:33:37;;;;;;;4.47;3.40;;;25.80;47.90;;;;;;4979504;28;20022;-63
2023/07/01 07:36:03;;;;;;;3.70;2.85;;;25.80;47.80;;;;;;4979483;28;20035;-64
2023/07/01 07:38:28;;;;;;;4.13;3.30;;;25.90;47.90;;;;;;4978965;28;20054;-63
2023/07/01 07:40:54;;;;;;;3.78;3.13;;;25.90;47.90;;;;;;4978030;28;20117;-64
2023/07/01 07:43:19;;;;;;;3.60;3.10;;;25.90;47.90;;;;;;4976616;28;20617;-63
2023/07/01 07:45:45;;;;;;;3.60;3.10;;;25.90;47.90;;;;;;4964783;28;20030;-63
2023/07/01 07:48:10;;;;;;;3.72;3.10;;;25.80;47.70;;;;;;4982449;28;20030;-63
2023/07/01 07:50:36;;;;;;;4.18;3.30;;;25.90;47.80;;;;;;4984223;28;20471;-63
2023/07/01 07:53:03;;;;;;;4.35;3.00;;;25.80;47.70;;;;;;4979637;28;20394;-63
2023/07/01 07:55:33;;;;;;;3.50;2.90;;;25.90;47.80;;;;;;4985236;28;20434;-63
2023/07/01 07:58:02;;;;;;;3.70;3.10;;;25.90;47.70;;;;;;4983709;28;20022;-63
2023/07/01 08:00:28;;;;;;;3.58;3.05;;;25.90;47.70;;;;;;4982314;28;20038;-63
2023/07/01 08:02:54;;;;;;;3.63;2.85;;;25.80;47.60;;;;;;4968011;28;20533;-63
2023/07/01 08:05:21;;;;;;;3.35;2.72;;;25.80;47.60;;;;;;4984897;28;20451;-64
2023/07/01 08:07:47;;;;;;;3.90;2.88;;;25.90;47.70;;;;;;4983412;28;20178;-64
2023/07/01 08:10:15;;;;;;;3.45;2.65;;;25.80;47.60;;;;;;4982781;28;20396;-63
2023/07/01 08:12:40;;;;;;;3.38;2.80;;;25.80;47.60;;;;;;4979943;28;20056;-63
2023/07/01 08:15:06;;;;;;;3.70;2.97;;;25.80;47.60;;;;;;4981277;28;20034;-63
2023/07/01 08:17:32;;;;;;;3.50;2.78;;;25.90;47.60;;;;;;4982684;28;20046;-64
2023/07/01 08:19:58;;;;;;;3.70;3.20;;;25.90;47.60;;;;;;4967099;28;20035;-63
2023/07/01 08:22:24;;;;;;;3.90;2.72;;;25.80;47.60;;;;;;4981800;28;20019;-64
2023/07/01 08:24:49;;;;;;;3.75;2.90;;;25.80;47.60;;;;;;4982442;28;20401;-63
2023/07/01 08:27:15;;;;;;;4.70;3.10;;;25.80;47.50;;;;;;4983115;28;20027;-63
2023/07/01 08:29:41;;;;;;;3.28;2.72;;;25.90;47.70;;;;;;4965931;28;20445;-63
2023/07/01 08:32:07;;;;;;;3.35;2.60;;;25.80;47.50;;;;;;4980293;28;20501;-63
2023/07/01 08:34:35;;;;;;;3.70;3.10;;;25.90;47.60;;;;;;4983547;28;20036;-63
2023/07/01 08:37:01;;;;;;;3.20;2.70;;;25.80;47.50;;;;;;4982043;28;20042;-63
2023/07/01 08:39:26;;;;;;;3.60;2.90;;;25.90;47.60;;;;;;4982796;28;20489;-63
2023/07/01 08:42:04;;;;;;;3.75;2.63;;;25.80;47.50;;;;;;4965608;28;20027;-64
2023/07/01 08:44:30;;;;;;;3.35;2.75;;;25.80;47.50;;;;;;4971380;28;20033;-63
2023/07/01 08:46:57;;;;;;;3.60;2.60;;;25.80;47.50;;;;;;4979577;28;20037;-63
2023/07/01 08:49:24;;;;;;;3.63;2.83;;;25.90;47.50;;;;;;4981347;28;20097;-63
2023/07/01 08:52:04;;;;;;;3.35;2.60;;;25.80;47.40;;;;;;4982348;28;20472;-63
2023/07/01 08:54:32;;;;;;;3.03;2.38;;;25.90;47.50;;;;;;4981462;28;20462;-62
2023/07/01 08:56:58;;;;;;;3.92;2.83;;;25.90;47.50;;;;;;4979860;28;20340;-63
2023/07/01 08:59:23;;;;;;;3.38;2.38;;;25.90;47.50;;;;;;4978598;28;20019;-63
2023/07/01 09:01:50;;;;;;;3.20;2.55;;;25.80;47.30;;;;;;4981010;28;20027;-63
2023/07/01 09:04:15;;;;;;;3.10;2.25;;;25.80;47.40;;;;;;4979530;28;20090;-63
2023/07/01 09:06:41;;;;;;;3.13;2.42;;;25.80;47.40;;;;;;4963620;28;20446;-63
2023/07/01 09:09:06;;;;;;;2.80;2.25;;;25.80;47.40;;;;;;4972063;28;20023;-63
2023/07/01 09:11:32;;;;;;;2.85;2.13;;;25.90;47.50;;;;;;4981765;28;20029;-63
2023/07/01 09:13:57;;;;;;;3.20;2.53;;;25.80;47.40;;;;;;4979252;28;20455;-63
2023/07/01 09:16:34;;;;;;;3.00;2.20;;;25.80;47.40;;;;;;4979684;28;20037;-63
2023/07/01 09:19:22;;;;;;;2.83;2.17;;;25.80;47.40;;;;;;4979660;28;20498;-63
2023/07/01 09:21:47;;;;;;;2.88;1.92;;;25.80;47.40;;;;;;4982594;28;20101;-64
2023/07/01 09:24:13;;;;;;;2.58;1.90;;;25.80;47.40;;;;;;4966267;28;20428;-63
2023/07/01 09:26:39;;;;;;;2.80;1.90;;;25.80;47.50;;;;;;4979358;28;20029;-63
2023/07/01 09:29:10;;;;;;;3.10;2.10;;;25.80;47.40;;;;;;4977063;28;20027;-64
2023/07/01 09:31:51;;;;;;;2.50;1.90;;;25.80;47.40;;;;;;4981232;28;20517;-64
2023/07/01 09:34:17;;;;;;;2.92;2.00;;;25.80;47.50;;;;;;4980966;28;20081;-63
2023/07/01 09:36:44;;;;;;;2.88;2.03;;;25.80;47.50;;;;;;4981285;28;20462;-63
2023/07/01 09:39:09;;;;;;;2.65;1.90;;;25.80;47.40;;;;;;4979791;28;20022;-64
2023/07/01 09:41:35;;;;;;;2.47;1.80;;;25.80;47.40;;;;;;4971129;28;20137;-63
2023/07/01 09:44:13;;;;;;;2.55;1.95;;;25.80;47.50;;;;;;4978670;28;20069;-63
2023/07/01 09:46:46;;;;;;;2.50;1.85;;;25.80;47.50;;;;;;4981407;28;20383;-63
2023/07/01 09:49:11;;;;;;;3.22;2.13;;;25.80;47.50;;;;;;4961116;28;20537;-63
2023/07/01 09:51:50;;;;;;;2.58;1.88;;;25.80;47.50;;;;;;4981253;28;20026;-63
2023/07/01 09:54:31;;;;;;;2.40;1.88;;;25.80;47.40;;;;;;4970689;28;20034;-63
2023/07/01 09:56:58;;;;;;;2.30;1.73;;;25.80;47.50;;;;;;4983645;28;20030;-63
2023/07/01 09:59:25;;;;;;;2.80;1.90;;;25.80;47.40;;;;;;4980442;28;20121;-64
2023/07/01 10:01:55;;;;;;;2.30;1.70;;;25.80;47.40;;;;;;4980818;28;20025;-64
2023/07/01 10:04:25;;;;;;;2.90;1.90;;;25.80;47.50;;;;;;4983095;28;20027;-63
2023/07/01 10:06:53;;;;;;;2.30;1.63;;;25.80;47.50;;;;;;4981580;28;20038;-63
2023/07/01 10:09:18;;;;;;;2.58;1.77;;;25.80;47.50;;;;;;4979062;28;20109;-63
2023/07/01 10:11:44;;;;;;;2.55;1.80;;;25.80;47.40;;;;;;4979091;28;20105;-63
2023/07/01 10:14:11;;;;;;;2.42;1.77;;;25.80;47.40;;;;;;4980235;28;20046;-63
2023/07/01 10:16:47;;;;;;;2.10;1.65;;;25.80;47.40;;;;;;4978198;28;20042;-63
2023/07/01 10:19:32;;;;;;;2.40;1.67;;;25.80;47.30;;;;;;4978749;28;20019;-63
2023/07/01 10:22:23;;;;;;;2.20;1.60;;;25.80;47.30;;;;;;4964394;28;20475;-63
2023/07/01 10:25:01;;;;;;;2.30;1.63;;;25.80;47.30;;;;;;4982033;28;20431;-63
2023/07/01 10:27:44;;;;;;;2.10;1.50;;;25.80;47.90;;;;;;4980471;28;20487;-63
2023/07/01 10:30:11;;;;;;;2.03;1.45;;;25.80;47.40;;;;;;4979480;28;20038;-63
2023/07/01 10:32:37;;;;;;;2.17;1.55;;;25.80;47.50;;;;;;4980077;28;20041;-63
2023/07/01 10:35:03;;;;;;;2.10;1.50;;;25.70;47.30;;;;;;4980097;28;20039;-64
2023/07/01 10:37:34;;;;;;;2.15;1.50;;;25.80;47.40;;;;;;4979558;28;20351;-63
2023/07/01 10:40:07;;;;;;;2.10;1.60;;;25.70;47.40;;;;;;4979333;28;20019;-63
2023/07/01 10:42:34;;;;;;;3.00;1.70;;;25.80;47.50;;;;;;4977458;28;20065;-63
2023/07/01 10:45:12;;;;;;;2.50;1.60;;;25.80;47.40;;;;;;4977353;28;20416;-64
2023/07/01 10:47:38;;;;;;;1.98;1.45;;;25.80;47.50;;;;;;4977903;28;20030;-64
2023/07/01 10:50:05;;;;;;;2.25;1.60;;;25.80;47.50;;;;;;4969330;28;20037;-63
2023/07/01 10:52:32;;;;;;;2.47;1.55;;;25.80;47.50;;;;;;4979737;28;20121;-63
2023/07/01 10:55:00;;;;;;;2.00;1.50;;;25.80;47.50;;;;;;4966009;28;20074;-63
2023/07/01 10:57:26;;;;;;;2.42;1.60;;;25.80;47.50;;;;;;4977267;28;20031;-63
2023/07/01 11:00:30;;;;;;;2.47;1.70;;;25.80;47.40;;;;;;4976990;28;20453;-63
2023/07/01 11:02:56;;;;;;;2.25;1.60;;;25.80;47.50;;;;;;4978833;28;20151;-63
2023/07/01 11:05:28;;;;;;;2.40;1.80;;;25.80;47.50;;;;;;4964534;28;20054;-64
2023/07/01 11:07:55;;;;;;;2.10;1.50;;;25.80;47.50;;;;;;4975748;28;20026;-63
2023/07/01 11:10:21;;;;;;;2.30;1.63;;;25.80;47.50;;;;;;4978148;28;20034;-63
2023/07/01 11:12:47;;;;;;;2.63;1.50;;;25.70;47.40;;;;;;4980083;28;20046;-64
2023/07/01 11:15:17;;;;;;;2.50;1.60;;;25.80;47.50;;;;;;4978354;28;20030;-64
2023/07/01 11:17:53;;;;;;;2.15;1.40;;;25.80;47.50;;;;;;4981173;28;20399;-63
2023/07/01 11:20:18;;;;;;;2.53;1.85;;;25.80;47.50;;;;;;4978697;28;20081;-63
2023/07/01 11:22:44;;;;;;;2.17;1.50;;;25.80;47.40;;;;;;4979238;28;20034;-63
2023/07/01 11:25:10;;;;;;;2.25;1.55;;;25.80;47.50;;;;;;4960639;28;20027;-62
2023/07/01 11:27:44;;;;;;;2.00;1.58;;;25.80;47.50;;;;;;4975933;28;20030;-63
2023/07/01 11:30:30;;;;;;;2.22;1.42;;;25.80;47.40;;;;;;4961080;28;20038;-63
2023/07/01 11:32:56;;;;;;;2.10;1.38;;;25.70;47.40;;;;;;4981730;28;20101;-64
2023/07/01 11:35:21;;;;;;;1.92;1.40;;;25.80;47.40;;;;;;4978460;28;20039;-63
2023/07/01 11:37:47;;;;;;;2.25;1.58;;;25.80;47.40;;;;;;4978531;28;20030;-62
2023/07/01 11:40:13;;;;;;;1.92;1.30;;;25.80;47.60;;;;;;4978774;28;20381;-62
2023/07/01 11:42:38;;;;;;;2.10;1.50;;;25.80;47.60;;;;;;4969297;28;20023;-63
2023/07/01 11:45:05;;;;;;;2.83;1.67;;;25.70;47.50;;;;;;4979100;28;20027;-62
2023/07/01 11:47:30;;;;;;;2.17;1.50;;;25.70;47.50;;;;;;4979128;28;20509;-63
2023/07/01 11:50:03;;;;;;;1.92;1.50;;;25.80;47.50;;;;;;4960713;28;20035;-62
2023/07/01 11:52:29;;;;;;;2.25;1.58;;;25.80;47.50;;;;;;4979422;28;20088;-62
2023/07/01 11:54:54;;;;;;;2.05;1.50;;;25.80;47.50;;;;;;4979009;28;20046;-62
2023/07/01 11:57:21;;;;;;;2.08;1.52;;;25.80;47.40;;;;;;4980191;28;20031;-62
2023/07/01 11:59:52;;;;;;;1.67;1.30;;;25.80;47.40;;;;;;4979164;28;20030;-63
2023/07/01 12:02:29;;;;;;;2.33;1.50;;;25.80;47.40;;;;;;4978046;28;20416;-63
2023/07/01 12:04:55;;;;;;;2.00;1.50;;;25.80;47.30;;;;;;4978105;28;20432;-62
2023/07/01 12:07:21;;;;;;;2.08;1.52;;;25.80;47.30;;;;;;4980229;28;20092;-62
2023/07/01 12:09:46;;;;;;;2.17;1.52;;;25.80;47.30;;;;;;4976991;28;20050;-62
2023/07/01 12:12:15;;;;;;;2.35;1.60;;;25.80;47.20;;;;;;4977664;28;20077;-63
2023/07/01 12:14:41;;;;;;;2.35;1.70;;;25.80;47.20;;;;;;4976402;28;20044;-62
2023/07/01 12:17:08;;;;;;;1.90;1.45;;;25.80;47.20;;;;;;4977028;28;20491;-63
2023/07/01 12:19:34;;;;;;;1.70;1.30;;;25.80;47.20;;;;;;4976357;28;20026;-62
2023/07/01 12:22:00;;;;;;;2.33;1.50;;;25.70;47.10;;;;;;4979426;28;20033;-62
2023/07/01 12:24:32;;;;;;;2.17;1.63;;;25.80;47.20;;;;;;4962133;28;20167;-63
2023/07/01 12:27:00;;;;;;;1.95;1.42;;;25.80;47.20;;;;;;4959588;28;20050;-63
2023/07/01 12:29:26;;;;;;;2.42;1.60;;;25.80;47.20;;;;;;4979420;28;20026;-62
2023/07/01 12:31:57;;;;;;;2.20;1.50;;;25.80;47.20;;;;;;4976758;28;20023;-63
2023/07/01 12:34:23;;;;;;;1.83;1.42;;;25.80;47.10;;;;;;4982167;28;20022;-62
2023/07/01 12:36:49;;;;;;;1.88;1.50;;;25.80;47.20;;;;;;4982380;28;20077;-63
2023/07/01 12:39:17;;;;;;;2.05;1.50;;;25.80;47.10;;;;;;4978558;28;20106;-62
2023/07/01 12:41:47;;;;;;;2.33;1.50;;;25.80;47.10;;;;;;4971567;28;20077;-62
2023/07/01 12:44:13;;;;;;;1.70;1.38;;;25.80;47.10;;;;;;4982989;28;20031;-63
2023/07/01 12:46:43;;;;;;;1.85;1.30;;;25.80;47.10;;;;;;4979525;28;20053;-63
2023/07/01 12:49:10;;;;;;;1.98;1.50;;;25.80;47.10;;;;;;4981906;28;20019;-63